createdAt,value
2017-10-04T00:01:18.373Z,87.80
2017-10-04T00:03:46.617Z,87.40
2017-10-04T00:06:14.857Z,86.60
2017-10-04T00:08:43.131Z,87.10
2017-10-04T00:11:11.371Z,88.20
2017-10-04T00:13:39.613Z,86.90
2017-10-04T00:16:08.684Z,87.20
2017-10-04T00:18:36.933Z,87.10
2017-10-04T00:21:05.175Z,87.80
2017-10-04T00:23:34.266Z,86.60
2017-10-04T00:26:02.504Z,86.60
2017-10-04T00:28:30.749Z,86.60
2017-10-04T00:30:59.314Z,88.30
2017-10-04T00:33:27.562Z,89.20
2017-10-04T00:35:56.574Z,88.40
2017-10-04T00:38:25.602Z,86.80
2017-10-04T00:40:53.837Z,86.70
2017-10-04T00:43:22.082Z,86.40
2017-10-04T00:45:50.747Z,87.50
2017-10-04T00:48:18.997Z,87.10
2017-10-04T00:50:47.242Z,87.10
2017-10-04T00:53:15.506Z,86.70
2017-10-04T00:55:43.760Z,86.90
2017-10-04T00:58:12.001Z,86.60
2017-10-04T01:00:40.338Z,87.30
2017-10-04T01:03:08.595Z,87.90
2017-10-04T01:05:36.841Z,87.10
2017-10-04T01:08:05.390Z,86.60
2017-10-04T01:10:33.638Z,85.80
2017-10-04T01:13:01.879Z,84.30
2017-10-04T01:15:30.146Z,84.30
2017-10-04T01:17:59.009Z,83.40
2017-10-04T01:20:28.006Z,84.30
2017-10-04T01:22:57.040Z,84.00
2017-10-04T01:25:25.293Z,84.00
2017-10-04T01:27:53.529Z,83.70
2017-10-04T01:30:22.177Z,83.70
2017-10-04T01:32:50.417Z,84.20
2017-10-04T01:35:19.433Z,85.20
2017-10-04T01:37:47.707Z,85.10
2017-10-04T01:40:15.953Z,86.10
2017-10-04T01:42:44.965Z,86.20
2017-10-04T01:45:13.237Z,86.20
2017-10-04T01:47:42.553Z,86.60
2017-10-04T01:50:10.789Z,86.50
2017-10-04T01:52:39.338Z,86.20
2017-10-04T01:55:07.579Z,87.00
2017-10-04T01:57:35.817Z,91.40
2017-10-04T02:00:04.090Z,90.40
2017-10-04T02:02:32.336Z,90.40
2017-10-04T02:05:00.578Z,88.90
2017-10-04T02:07:29.635Z,88.30
2017-10-04T02:09:57.870Z,88.30
2017-10-04T02:12:26.122Z,88.50
2017-10-04T02:14:55.253Z,88.10
2017-10-04T02:17:23.501Z,88.00
2017-10-04T02:19:51.849Z,87.60
2017-10-04T02:22:20.110Z,88.70
2017-10-04T02:24:48.352Z,90.20
2017-10-04T02:27:16.601Z,88.40
2017-10-04T02:29:44.869Z,88.90
2017-10-04T02:32:13.885Z,90.80
2017-10-04T02:34:42.125Z,90.40
2017-10-04T02:37:10.574Z,89.30
2017-10-04T02:39:38.829Z,89.40
2017-10-04T02:42:07.061Z,89.40
2017-10-04T02:44:35.329Z,89.00
2017-10-04T02:47:03.571Z,89.10
2017-10-04T02:49:31.818Z,89.50
2017-10-04T02:52:00.086Z,90.50
2017-10-04T02:54:28.329Z,90.00
2017-10-04T02:56:56.574Z,91.30
2017-10-04T02:59:25.137Z,90.30
2017-10-04T03:01:53.377Z,90.20
2017-10-04T03:04:21.613Z,90.30
2017-10-04T03:06:49.891Z,90.70
2017-10-04T03:09:18.137Z,90.00
2017-10-04T03:11:46.382Z,89.80
2017-10-04T03:14:14.645Z,90.20
2017-10-04T03:16:42.894Z,90.20
2017-10-04T03:19:11.134Z,90.80
2017-10-04T03:21:40.359Z,90.60
2017-10-04T03:24:08.622Z,90.60
2017-10-04T03:26:36.841Z,90.30
2017-10-04T03:29:05.106Z,90.20
2017-10-04T03:31:33.341Z,90.00
2017-10-04T03:34:01.590Z,90.00
2017-10-04T03:36:29.857Z,90.70
2017-10-04T03:38:58.105Z,90.60
2017-10-04T03:41:26.342Z,90.40
2017-10-04T03:43:55.273Z,90.20
2017-10-04T03:46:23.511Z,90.30
2017-10-04T03:48:51.753Z,90.30
2017-10-04T03:51:20.018Z,90.50
2017-10-04T03:53:48.266Z,90.50
2017-10-04T03:56:17.700Z,90.80
2017-10-04T03:58:45.965Z,90.90
2017-10-04T04:01:14.209Z,90.70
2017-10-04T04:03:42.450Z,91.10
2017-10-04T04:06:10.993Z,90.90
2017-10-04T04:08:39.241Z,93.40
2017-10-04T04:11:07.481Z,91.40
2017-10-04T04:13:35.750Z,91.30
2017-10-04T04:16:03.989Z,91.70
2017-10-04T04:18:32.233Z,90.90
2017-10-04T04:21:01.268Z,91.10
2017-10-04T04:23:29.908Z,91.10
2017-10-04T04:26:00.102Z,91.20
2017-10-04T04:28:28.757Z,91.10
2017-10-04T04:30:56.989Z,91.00
2017-10-04T04:33:25.241Z,91.00
2017-10-04T04:35:53.507Z,91.20
2017-10-04T04:38:33.438Z,91.00
2017-10-04T04:41:01.702Z,90.80
2017-10-04T04:43:29.950Z,91.20
2017-10-04T04:45:58.193Z,91.00
2017-10-04T04:48:26.545Z,91.40
2017-10-04T04:50:54.803Z,91.10
2017-10-04T04:53:23.055Z,91.70
2017-10-04T04:55:52.361Z,91.80
2017-10-04T04:58:21.423Z,91.30
2017-10-04T05:00:49.662Z,91.30
2017-10-04T05:03:18.109Z,91.40
2017-10-04T05:05:47.125Z,91.40
2017-10-04T05:08:15.374Z,91.30
2017-10-04T05:10:43.718Z,91.50
2017-10-04T05:13:11.962Z,91.90
2017-10-04T05:15:40.209Z,91.60
2017-10-04T05:18:08.478Z,91.80
2017-10-04T05:20:36.731Z,91.90
2017-10-04T05:23:04.965Z,91.70
2017-10-04T05:25:33.550Z,91.80
2017-10-04T05:28:01.794Z,92.10
2017-10-04T05:30:30.069Z,91.40
2017-10-04T05:32:58.629Z,91.70
2017-10-04T05:35:26.916Z,91.50
2017-10-04T05:37:55.169Z,91.80
2017-10-04T05:40:23.422Z,91.50
2017-10-04T05:42:51.667Z,91.30
2017-10-04T05:45:19.910Z,91.50
2017-10-04T05:47:48.180Z,91.80
2017-10-04T05:50:19.776Z,91.30
2017-10-04T05:52:48.787Z,91.70
2017-10-04T05:55:17.499Z,91.70
2017-10-04T05:57:45.736Z,91.60
2017-10-04T06:00:13.985Z,91.20
2017-10-04T06:02:42.250Z,91.50
2017-10-04T06:05:10.518Z,91.30
2017-10-04T06:07:38.749Z,91.50
2017-10-04T06:10:07.022Z,91.50
2017-10-04T06:12:35.261Z,91.50
2017-10-04T06:15:03.509Z,90.90
2017-10-04T06:17:31.870Z,90.30
2017-10-04T06:20:00.118Z,88.70
2017-10-04T06:22:28.369Z,88.40
2017-10-04T06:24:56.645Z,87.70
2017-10-04T06:27:25.225Z,88.70
2017-10-04T06:29:53.473Z,88.50
2017-10-04T06:32:21.746Z,90.20
2017-10-04T06:34:49.995Z,89.90
2017-10-04T06:37:18.242Z,90.20
2017-10-04T06:39:46.780Z,90.90
2017-10-04T06:42:15.026Z,90.10
2017-10-04T06:44:44.035Z,90.00
2017-10-04T06:47:12.481Z,90.00
2017-10-04T06:49:41.497Z,90.50
2017-10-04T06:52:09.745Z,90.40
2017-10-04T06:54:38.013Z,90.50
2017-10-04T06:57:06.257Z,90.40
2017-10-04T06:59:34.512Z,90.90
2017-10-04T07:02:03.113Z,90.80
2017-10-04T07:04:31.359Z,90.20
2017-10-04T07:07:00.373Z,90.20
2017-10-04T07:09:28.646Z,90.20
2017-10-04T07:11:56.889Z,90.10
2017-10-04T07:14:25.925Z,90.10
2017-10-04T07:16:54.193Z,90.10
2017-10-04T07:19:22.437Z,89.10
2017-10-04T07:21:50.681Z,89.00
2017-10-04T07:24:19.450Z,88.50
2017-10-04T07:26:47.694Z,87.50
2017-10-04T07:29:17.082Z,83.50
2017-10-04T07:31:46.117Z,83.60
2017-10-04T07:34:14.361Z,83.50
2017-10-04T07:36:42.601Z,82.50
2017-10-04T07:39:10.885Z,80.30
2017-10-04T07:41:39.131Z,79.90
2017-10-04T07:44:07.377Z,79.00
2017-10-04T07:46:36.114Z,78.50
2017-10-04T07:49:04.341Z,77.30
2017-10-04T07:51:32.581Z,77.30
2017-10-04T07:54:00.843Z,77.60
2017-10-04T07:56:29.081Z,76.30
2017-10-04T07:58:57.464Z,76.70
2017-10-04T08:01:25.728Z,75.80
2017-10-04T08:03:54.734Z,76.60
2017-10-04T08:06:22.985Z,76.60
2017-10-04T08:08:51.329Z,76.90
2017-10-04T08:11:19.575Z,78.10
2017-10-04T08:13:47.817Z,77.30
2017-10-04T08:16:16.855Z,76.90
2017-10-04T08:18:45.108Z,76.80
2017-10-04T08:21:13.353Z,77.10
2017-10-04T08:23:42.386Z,74.20
2017-10-04T08:26:10.629Z,74.00
2017-10-04T08:28:38.879Z,72.40
2017-10-04T08:31:07.743Z,72.30
2017-10-04T08:33:35.985Z,74.80
2017-10-04T08:36:04.223Z,73.20
2017-10-04T08:38:32.489Z,72.30
2017-10-04T08:41:00.730Z,72.30
2017-10-04T08:43:28.978Z,71.80
2017-10-04T08:45:57.248Z,72.00
2017-10-04T08:48:36.414Z,71.50
2017-10-04T08:51:05.013Z,71.70
2017-10-04T08:53:33.249Z,71.10
2017-10-04T08:56:01.494Z,72.00
2017-10-04T08:58:29.759Z,71.80
2017-10-04T09:00:58.001Z,69.70
2017-10-04T09:03:26.252Z,68.30
2017-10-04T09:06:03.130Z,67.60
2017-10-04T09:08:31.373Z,67.60
2017-10-04T09:10:59.631Z,67.80
2017-10-04T09:13:28.409Z,67.70
2017-10-04T09:15:56.653Z,69.00
2017-10-04T09:18:25.661Z,68.60
2017-10-04T09:20:53.918Z,68.60
2017-10-04T09:23:22.936Z,65.50
2017-10-04T09:25:51.179Z,65.50
2017-10-04T09:28:20.210Z,67.60
2017-10-04T09:30:48.485Z,67.60
2017-10-04T09:33:16.957Z,65.00
2017-10-04T09:35:45.667Z,65.30
2017-10-04T09:38:13.961Z,65.20
2017-10-04T09:40:42.181Z,66.30
2017-10-04T09:43:10.449Z,65.60
2017-10-04T09:45:40.636Z,63.60
2017-10-04T09:48:08.913Z,63.60
2017-10-04T09:50:37.174Z,65.10
2017-10-04T09:53:05.417Z,61.70
2017-10-04T09:55:33.659Z,60.70
2017-10-04T09:58:01.985Z,61.10
2017-10-04T10:00:30.253Z,58.80
2017-10-04T10:02:58.498Z,57.40
2017-10-04T10:05:26.762Z,58.50
2017-10-04T10:07:55.034Z,58.60
2017-10-04T10:10:23.329Z,58.10
2017-10-04T10:12:51.593Z,54.60
2017-10-04T10:15:19.838Z,56.40
2017-10-04T10:17:48.086Z,56.40
2017-10-04T10:20:16.553Z,57.20
2017-10-04T10:22:46.016Z,56.90
2017-10-04T10:25:14.262Z,56.60
2017-10-04T10:27:42.675Z,55.40
2017-10-04T10:30:10.910Z,55.00
2017-10-04T10:32:39.145Z,56.20
2017-10-04T10:35:07.674Z,56.40
2017-10-04T10:37:35.918Z,57.90
2017-10-04T10:40:04.945Z,57.70
2017-10-04T10:42:33.440Z,57.60
2017-10-04T10:45:02.494Z,57.30
2017-10-04T10:47:30.720Z,57.20
2017-10-04T10:49:59.515Z,58.00
2017-10-04T10:52:27.742Z,59.30
2017-10-04T10:54:55.985Z,58.30
2017-10-04T10:57:24.249Z,58.10
2017-10-04T10:59:52.486Z,57.20
2017-10-04T11:02:20.721Z,57.30
2017-10-04T11:04:49.169Z,55.10
2017-10-04T11:07:17.410Z,54.30
2017-10-04T11:09:45.646Z,53.10
2017-10-04T11:12:13.918Z,53.10
2017-10-04T11:14:42.153Z,52.30
2017-10-04T11:17:10.564Z,50.40
2017-10-04T11:19:38.810Z,50.30
2017-10-04T11:22:07.062Z,50.40
2017-10-04T11:24:35.339Z,50.60
2017-10-04T11:27:03.958Z,48.90
2017-10-04T11:29:32.193Z,50.60
2017-10-04T11:32:01.214Z,50.60
2017-10-04T11:34:29.482Z,50.70
2017-10-04T11:36:58.049Z,49.10
2017-10-04T11:39:27.208Z,49.30
2017-10-04T11:41:55.464Z,49.30
2017-10-04T11:44:23.708Z,48.80
2017-10-04T11:46:51.947Z,48.80
2017-10-04T11:49:20.598Z,46.90
2017-10-04T11:51:48.838Z,46.30
2017-10-04T11:54:17.078Z,47.20
2017-10-04T11:56:45.342Z,47.80
2017-10-04T11:59:13.582Z,46.90
2017-10-04T12:01:41.828Z,47.00
2017-10-04T12:04:10.091Z,47.20
2017-10-04T12:06:38.348Z,46.70
2017-10-04T12:09:06.586Z,45.30
2017-10-04T12:11:35.394Z,45.40
2017-10-04T12:14:03.634Z,46.80
2017-10-04T12:16:31.873Z,46.80
2017-10-04T12:19:00.133Z,47.60
2017-10-04T12:21:28.390Z,48.20
2017-10-04T12:23:56.637Z,48.70
2017-10-04T12:26:25.684Z,49.10
2017-10-04T12:28:53.938Z,48.90
2017-10-04T12:31:22.178Z,47.40
2017-10-04T12:33:50.809Z,47.50
2017-10-04T12:36:19.053Z,47.20
2017-10-04T12:38:47.526Z,47.00
2017-10-04T12:41:16.562Z,46.70
2017-10-04T12:43:44.862Z,46.70
2017-10-04T12:46:13.098Z,47.40
2017-10-04T12:48:41.366Z,47.90
2017-10-04T12:51:09.609Z,47.50
2017-10-04T12:53:37.868Z,47.60
2017-10-04T12:56:06.349Z,47.60
2017-10-04T12:58:34.726Z,47.60
2017-10-04T13:01:02.945Z,47.50
2017-10-04T13:03:31.977Z,48.60
2017-10-04T13:06:00.367Z,49.10
2017-10-04T13:08:28.597Z,47.50
2017-10-04T13:10:56.873Z,46.50
2017-10-04T13:13:25.882Z,45.60
2017-10-04T13:15:54.142Z,45.60
2017-10-04T13:18:23.775Z,46.00
2017-10-04T13:20:52.013Z,46.00
2017-10-04T13:23:21.020Z,45.80
2017-10-04T13:25:49.285Z,45.80
2017-10-04T13:28:17.529Z,45.80
2017-10-04T13:30:45.785Z,46.30
2017-10-04T13:33:14.049Z,46.60
2017-10-04T13:35:42.289Z,45.60
2017-10-04T13:38:11.310Z,42.90
2017-10-04T13:40:40.433Z,42.80
2017-10-04T13:43:08.679Z,43.90
2017-10-04T13:45:36.913Z,44.70
2017-10-04T13:48:05.175Z,45.60
2017-10-04T13:50:33.423Z,45.10
2017-10-04T13:53:01.673Z,44.30
2017-10-04T13:55:30.758Z,44.80
2017-10-04T13:57:58.986Z,44.70
2017-10-04T14:00:27.224Z,43.20
2017-10-04T14:02:55.710Z,43.30
2017-10-04T14:05:24.011Z,42.20
2017-10-04T14:07:52.257Z,43.50
2017-10-04T14:10:21.287Z,42.20
2017-10-04T14:12:49.522Z,42.20
2017-10-04T14:15:17.761Z,42.40
2017-10-04T14:17:46.029Z,43.90
2017-10-04T14:20:14.270Z,45.10
2017-10-04T14:22:42.509Z,45.40
2017-10-04T14:25:10.913Z,45.10
2017-10-04T14:27:39.921Z,45.40
2017-10-04T14:30:08.153Z,45.30
2017-10-04T14:32:36.636Z,46.40
2017-10-04T14:35:04.906Z,46.80
2017-10-04T14:37:33.145Z,47.00
2017-10-04T14:40:01.417Z,48.00
2017-10-04T14:42:29.870Z,48.20
2017-10-04T14:44:58.887Z,49.10
2017-10-04T14:47:27.713Z,49.00
2017-10-04T14:49:56.090Z,49.10
2017-10-04T14:52:24.305Z,49.50
2017-10-04T14:54:53.393Z,50.00
2017-10-04T14:57:21.650Z,50.00
2017-10-04T14:59:49.961Z,49.90
2017-10-04T15:02:18.413Z,50.00
2017-10-04T15:04:46.673Z,50.20
2017-10-04T15:07:14.905Z,50.10
2017-10-04T15:09:43.655Z,50.40
2017-10-04T15:12:11.885Z,50.50
2017-10-04T15:14:40.188Z,50.60
2017-10-04T15:17:08.570Z,50.90
2017-10-04T15:19:36.947Z,51.00
2017-10-04T15:22:05.173Z,50.90
2017-10-04T15:24:33.705Z,51.20
2017-10-04T15:27:01.938Z,51.50
2017-10-04T15:29:30.170Z,51.00
2017-10-04T15:31:58.721Z,51.40
2017-10-04T15:34:26.953Z,52.00
2017-10-04T15:36:55.199Z,52.20
2017-10-04T15:39:23.514Z,52.20
2017-10-04T15:41:52.533Z,53.00
2017-10-04T15:44:21.110Z,52.40
2017-10-04T15:46:49.365Z,52.40
2017-10-04T15:49:17.606Z,52.40
2017-10-04T15:51:46.783Z,52.40
2017-10-04T15:54:15.266Z,52.90
2017-10-04T15:56:43.538Z,52.90
2017-10-04T15:59:11.789Z,52.80
2017-10-04T16:01:40.054Z,53.00
2017-10-04T16:04:09.062Z,53.30
2017-10-04T16:06:37.501Z,53.30
2017-10-04T16:09:05.766Z,53.60
2017-10-04T16:11:34.078Z,53.70
2017-10-04T16:14:02.394Z,53.60
2017-10-04T16:16:30.714Z,53.50
2017-10-04T16:18:59.051Z,54.10
2017-10-04T16:21:27.450Z,54.00
2017-10-04T16:23:55.714Z,53.90
2017-10-04T16:26:23.954Z,53.90
2017-10-04T16:28:52.204Z,54.30
2017-10-04T16:31:20.468Z,54.40
2017-10-04T16:33:48.705Z,54.60
2017-10-04T16:36:16.950Z,54.70
2017-10-04T16:38:46.217Z,54.80
2017-10-04T16:41:16.646Z,54.80
2017-10-04T16:43:45.019Z,55.50
2017-10-04T16:46:13.442Z,55.40
2017-10-04T16:48:42.436Z,54.80
2017-10-04T16:51:10.686Z,54.70
2017-10-04T16:53:38.949Z,55.50
2017-10-04T16:56:07.226Z,55.30
2017-10-04T16:58:35.478Z,55.20
2017-10-04T17:01:04.053Z,55.40
2017-10-04T17:03:32.558Z,55.50
2017-10-04T17:06:00.946Z,55.50
2017-10-04T17:08:29.238Z,55.50
2017-10-04T17:10:57.488Z,55.20
2017-10-04T17:13:25.767Z,55.20
2017-10-04T17:15:54.018Z,55.40
2017-10-04T17:18:22.321Z,55.90
2017-10-04T17:20:50.562Z,56.10
2017-10-04T17:23:19.238Z,56.00
2017-10-04T17:25:47.509Z,56.30
2017-10-04T17:28:15.750Z,56.30
2017-10-04T17:30:44.013Z,56.30
2017-10-04T17:33:12.302Z,56.10
2017-10-04T17:35:40.549Z,56.60
2017-10-04T17:38:08.818Z,56.70
2017-10-04T17:40:37.133Z,56.90
2017-10-04T17:43:06.442Z,57.50
2017-10-04T17:45:35.204Z,57.30
2017-10-04T17:48:03.502Z,57.60
2017-10-04T17:50:31.762Z,57.20
2017-10-04T17:53:00.039Z,57.40
2017-10-04T17:55:28.365Z,57.50
2017-10-04T17:57:57.373Z,58.30
2017-10-04T18:00:25.637Z,58.30
2017-10-04T18:02:54.080Z,58.70
2017-10-04T18:05:22.333Z,58.80
2017-10-04T18:07:50.785Z,58.40
2017-10-04T18:10:19.042Z,58.50
2017-10-04T18:12:47.305Z,58.50
2017-10-04T18:15:15.725Z,58.30
2017-10-04T18:17:44.018Z,58.30
2017-10-04T18:20:12.253Z,58.20
2017-10-04T18:22:41.287Z,58.70
2017-10-04T18:25:09.530Z,58.00
2017-10-04T18:27:38.073Z,58.10
2017-10-04T18:30:06.674Z,58.90
2017-10-04T18:32:34.935Z,58.60
2017-10-04T18:35:03.181Z,58.80
2017-10-04T18:37:31.451Z,59.00
2017-10-04T18:39:59.757Z,58.60
2017-10-04T18:42:28.004Z,58.50
2017-10-04T18:44:56.272Z,58.90
2017-10-04T18:47:24.506Z,58.80
2017-10-04T18:49:52.967Z,59.20
2017-10-04T18:52:21.285Z,60.30
2017-10-04T18:54:50.353Z,60.00
2017-10-04T18:57:18.598Z,59.90
2017-10-04T18:59:46.886Z,60.80
2017-10-04T19:02:15.113Z,60.40
2017-10-04T19:04:44.142Z,60.10
2017-10-04T19:07:12.425Z,60.10
2017-10-04T19:09:40.694Z,60.90
2017-10-04T19:12:08.939Z,61.70
2017-10-04T19:14:37.718Z,63.10
2017-10-04T19:17:07.949Z,63.90
2017-10-04T19:19:36.297Z,63.00
2017-10-04T19:22:04.569Z,63.90
2017-10-04T19:24:32.810Z,64.10
2017-10-04T19:27:01.070Z,64.20
2017-10-04T19:29:29.352Z,64.50
2017-10-04T19:31:58.810Z,63.20
2017-10-04T19:34:27.049Z,63.70
2017-10-04T19:36:55.361Z,64.40
2017-10-04T19:39:25.797Z,63.10
2017-10-04T19:41:54.050Z,62.70
2017-10-04T19:44:22.326Z,62.20
2017-10-04T19:46:50.966Z,62.00
2017-10-04T19:49:19.974Z,61.70
2017-10-04T19:51:48.281Z,61.60
2017-10-04T19:54:16.505Z,62.50
2017-10-04T19:56:44.765Z,62.50
2017-10-04T19:59:14.114Z,62.20
2017-10-04T20:01:42.357Z,62.10
2017-10-04T20:04:11.389Z,61.90
2017-10-04T20:06:39.640Z,61.90
2017-10-04T20:09:07.885Z,62.70
2017-10-04T20:11:36.245Z,61.00
2017-10-04T20:14:04.514Z,61.60
2017-10-04T20:16:32.755Z,60.50
2017-10-04T20:19:00.997Z,60.30
2017-10-04T20:21:29.477Z,59.80
2017-10-04T20:23:58.490Z,59.70
2017-10-04T20:26:27.498Z,59.60
2017-10-04T20:28:55.772Z,59.60
2017-10-04T20:31:24.009Z,59.90
2017-10-04T20:33:52.249Z,60.40
2017-10-04T20:36:20.514Z,59.90
2017-10-04T20:38:48.749Z,60.00
2017-10-04T20:41:17.775Z,59.90
2017-10-04T20:43:46.492Z,59.90
2017-10-04T20:46:15.569Z,59.90
2017-10-04T20:48:44.456Z,59.70
2017-10-04T20:51:12.712Z,59.70
2017-10-04T20:53:40.950Z,59.80
2017-10-04T20:56:09.194Z,59.80
2017-10-04T20:58:37.460Z,59.50
2017-10-04T21:01:05.697Z,60.00
2017-10-04T21:03:34.703Z,60.60
2017-10-04T21:06:05.098Z,60.30
2017-10-04T21:08:33.327Z,60.20
2017-10-04T21:11:01.570Z,60.70
2017-10-04T21:13:30.702Z,60.60
2017-10-04T21:15:59.935Z,60.40
2017-10-04T21:18:28.178Z,60.60
2017-10-04T21:20:56.435Z,60.90
2017-10-04T21:23:24.693Z,61.40
2017-10-04T21:25:52.914Z,60.50
2017-10-04T21:28:21.674Z,59.80
2017-10-04T21:30:49.918Z,59.40
2017-10-04T21:33:18.157Z,59.40
2017-10-04T21:35:46.421Z,59.70
2017-10-04T21:38:14.657Z,59.80
2017-10-04T21:40:44.033Z,59.80
2017-10-04T21:43:12.303Z,59.80
2017-10-04T21:45:40.541Z,59.90
2017-10-04T21:48:08.782Z,59.60
2017-10-04T21:50:37.670Z,59.90
2017-10-04T21:53:05.914Z,60.00
2017-10-04T21:55:34.309Z,59.90
2017-10-04T21:58:02.668Z,60.60
2017-10-04T22:00:31.133Z,60.80
2017-10-04T22:02:59.453Z,60.90
2017-10-04T22:05:27.727Z,61.40
2017-10-04T22:07:58.969Z,61.10
2017-10-04T22:10:27.206Z,61.00
2017-10-04T22:12:55.843Z,61.10
2017-10-04T22:15:24.085Z,60.90
2017-10-04T22:17:52.329Z,60.80
2017-10-04T22:20:24.150Z,60.80
2017-10-04T22:22:52.378Z,60.90
2017-10-04T22:25:20.702Z,61.20
2017-10-04T22:27:48.969Z,61.40
2017-10-04T22:30:17.209Z,61.70
2017-10-04T22:32:45.458Z,61.40
2017-10-04T22:35:14.297Z,62.00
2017-10-04T22:37:42.537Z,62.00
2017-10-04T22:40:10.790Z,61.80
2017-10-04T22:42:39.055Z,62.40
2017-10-04T22:45:07.302Z,62.50
2017-10-04T22:47:35.542Z,62.30
2017-10-04T22:50:04.574Z,62.90
2017-10-04T22:52:33.049Z,62.80
2017-10-04T22:55:01.286Z,62.90
2017-10-04T22:57:30.621Z,63.00
2017-10-04T22:59:58.865Z,63.00
2017-10-04T23:02:27.873Z,64.20
2017-10-04T23:04:56.138Z,64.10
2017-10-04T23:07:24.379Z,64.20
2017-10-04T23:09:52.646Z,64.40
2017-10-04T23:12:20.909Z,64.40
2017-10-04T23:14:49.149Z,64.70
2017-10-04T23:17:17.398Z,64.30
2017-10-04T23:19:45.874Z,64.70
2017-10-04T23:22:14.114Z,65.10
2017-10-04T23:24:42.410Z,65.10
2017-10-04T23:27:10.676Z,65.10
2017-10-04T23:29:38.914Z,65.30
2017-10-04T23:32:07.158Z,65.50
2017-10-04T23:34:35.421Z,65.30
2017-10-04T23:37:03.664Z,65.20
2017-10-04T23:39:31.901Z,65.30
2017-10-04T23:42:00.538Z,65.20
2017-10-04T23:44:28.789Z,65.60
2017-10-04T23:46:57.038Z,65.70
2017-10-04T23:49:25.316Z,65.90
2017-10-04T23:51:54.325Z,65.80
2017-10-04T23:54:22.598Z,65.70
2017-10-04T23:56:51.622Z,66.30
2017-10-04T23:59:19.866Z,66.20
